createdAt,value
2017-08-11T00:00:36.962Z,33.30
2017-08-11T00:03:03.586Z,34.43
2017-08-11T00:05:31.021Z,31.80
2017-08-11T00:07:57.682Z,28.73
2017-08-11T00:10:24.298Z,33.20
2017-08-11T00:12:50.954Z,31.90
2017-08-11T00:15:17.604Z,28.80
2017-08-11T00:17:44.251Z,25.63
2017-08-11T00:20:10.895Z,28.87
2017-08-11T00:22:37.511Z,35.60
2017-08-11T00:25:04.141Z,37.07
2017-08-11T00:27:30.772Z,28.90
2017-08-11T00:29:57.406Z,30.90
2017-08-11T00:32:24.042Z,36.63
2017-08-11T00:34:50.687Z,33.90
2017-08-11T00:37:17.314Z,31.17
2017-08-11T00:39:43.972Z,32.83
2017-08-11T00:42:10.582Z,37.43
2017-08-11T00:44:37.231Z,34.10
2017-08-11T00:47:03.840Z,39.33
2017-08-11T00:49:30.459Z,43.27
2017-08-11T00:51:57.138Z,44.50
2017-08-11T00:54:23.759Z,35.70
2017-08-11T00:56:50.384Z,43.47
2017-08-11T00:59:17.008Z,40.87
2017-08-11T01:01:43.651Z,45.00
2017-08-11T01:04:10.309Z,45.93
2017-08-11T01:06:36.953Z,48.67
2017-08-11T01:09:03.612Z,45.30
2017-08-11T01:11:30.275Z,43.50
2017-08-11T01:13:56.916Z,46.53
2017-08-11T01:16:23.547Z,41.60
2017-08-11T01:18:50.175Z,50.50
2017-08-11T01:21:16.803Z,47.80
2017-08-11T01:23:43.459Z,41.97
2017-08-11T01:26:10.100Z,51.57
2017-08-11T01:28:36.711Z,45.43
2017-08-11T01:31:03.370Z,40.93
2017-08-11T01:33:30.004Z,44.17
2017-08-11T01:35:56.627Z,54.57
2017-08-11T01:38:23.272Z,50.07
2017-08-11T01:40:49.909Z,43.90
2017-08-11T01:43:16.543Z,50.17
2017-08-11T01:45:43.194Z,53.30
2017-08-11T01:48:09.821Z,51.20
2017-08-11T01:50:36.454Z,59.77
2017-08-11T01:53:03.078Z,58.80
2017-08-11T01:55:29.734Z,56.53
2017-08-11T01:57:56.357Z,49.40
2017-08-11T02:00:22.976Z,58.77
2017-08-11T02:02:49.610Z,55.20
2017-08-11T02:05:16.266Z,55.00
2017-08-11T02:07:42.895Z,55.00
2017-08-11T02:10:09.526Z,63.80
2017-08-11T02:12:36.160Z,54.20
2017-08-11T02:15:02.779Z,63.27
2017-08-11T02:17:29.413Z,54.80
2017-08-11T02:19:56.059Z,51.43
2017-08-11T02:22:22.669Z,53.27
2017-08-11T02:24:49.310Z,55.27
2017-08-11T02:27:15.968Z,59.77
2017-08-11T02:29:42.580Z,50.93
2017-08-11T02:32:09.223Z,55.50
2017-08-11T02:34:35.874Z,57.27
2017-08-11T02:37:02.499Z,53.30
2017-08-11T02:39:29.167Z,53.67
2017-08-11T02:41:55.783Z,56.67
2017-08-11T02:44:22.422Z,64.40
2017-08-11T02:46:49.051Z,60.77
2017-08-11T02:49:15.710Z,65.10
2017-08-11T02:51:42.340Z,67.17
2017-08-11T02:54:09.314Z,66.17
2017-08-11T02:56:35.949Z,79.23
2017-08-11T02:59:02.576Z,68.80
2017-08-11T03:01:29.202Z,65.63
2017-08-11T03:03:55.922Z,82.10
2017-08-11T03:06:22.638Z,74.07
2017-08-11T03:08:49.265Z,76.03
2017-08-11T03:11:15.928Z,86.93
2017-08-11T03:13:42.611Z,91.37
2017-08-11T03:16:09.226Z,95.50
2017-08-11T03:18:35.872Z,97.73
2017-08-11T03:21:02.482Z,108.90
2017-08-11T03:23:29.149Z,109.83
2017-08-11T03:25:55.797Z,100.03
2017-08-11T03:28:22.459Z,102.97
2017-08-11T03:30:49.097Z,104.87
2017-08-11T03:33:15.711Z,87.03
2017-08-11T03:35:42.367Z,84.17
2017-08-11T03:38:08.983Z,97.13
2017-08-11T03:40:35.615Z,91.77
2017-08-11T03:43:02.244Z,87.07
2017-08-11T03:45:34.746Z,85.13
2017-08-11T03:48:01.378Z,78.33
2017-08-11T03:50:27.995Z,86.23
2017-08-11T03:52:54.664Z,86.47
2017-08-11T03:55:21.312Z,78.17
2017-08-11T03:57:47.953Z,86.63
2017-08-11T04:00:14.609Z,87.60
2017-08-11T04:02:41.260Z,81.30
2017-08-11T04:05:07.897Z,78.90
2017-08-11T04:07:34.523Z,86.73
2017-08-11T04:10:01.158Z,87.67
2017-08-11T04:12:27.835Z,74.60
2017-08-11T04:14:54.464Z,84.97
2017-08-11T04:17:21.090Z,79.27
2017-08-11T04:19:48.129Z,82.20
2017-08-11T04:22:14.742Z,82.00
2017-08-11T04:24:41.393Z,69.50
2017-08-11T04:27:08.038Z,73.10
2017-08-11T04:29:34.667Z,59.67
2017-08-11T04:32:01.299Z,47.33
2017-08-11T04:34:29.118Z,51.07
2017-08-11T04:36:56.091Z,44.93
2017-08-11T04:39:22.730Z,43.30
2017-08-11T04:41:50.618Z,41.47
2017-08-11T04:44:17.495Z,44.90
2017-08-11T04:46:44.134Z,47.93
2017-08-11T04:49:10.786Z,32.27
2017-08-11T04:51:39.312Z,36.97
2017-08-11T04:54:07.554Z,26.43
2017-08-11T04:56:35.050Z,28.00
2017-08-11T04:59:02.027Z,23.73
2017-08-11T05:01:29.851Z,20.70
2017-08-11T05:03:58.171Z,23.87
2017-08-11T05:06:26.634Z,23.73
2017-08-11T05:08:53.890Z,20.37
2017-08-11T05:11:20.517Z,17.67
2017-08-11T05:13:47.198Z,21.43
2017-08-11T05:16:13.824Z,16.73
2017-08-11T05:18:40.760Z,21.83
2017-08-11T05:21:08.989Z,16.03
2017-08-11T05:23:35.966Z,21.50
2017-08-11T05:26:02.587Z,21.00
2017-08-11T05:28:29.238Z,18.27
2017-08-11T05:30:55.886Z,23.97
2017-08-11T05:33:22.515Z,22.37
2017-08-11T05:35:49.539Z,23.20
2017-08-11T05:38:16.196Z,19.27
2017-08-11T05:40:42.850Z,24.30
2017-08-11T05:43:09.758Z,17.57
2017-08-11T05:45:36.414Z,21.60
2017-08-11T05:48:03.343Z,19.07
2017-08-11T05:50:30.848Z,18.43
2017-08-11T05:52:58.227Z,22.07
2017-08-11T05:55:25.091Z,24.43
2017-08-11T05:57:51.736Z,19.40
2017-08-11T06:00:18.404Z,22.37
2017-08-11T06:02:45.053Z,20.30
2017-08-11T06:05:11.687Z,23.33
2017-08-11T06:07:38.336Z,22.10
2017-08-11T06:10:05.229Z,21.47
2017-08-11T06:12:31.856Z,20.93
2017-08-11T06:14:58.490Z,21.43
2017-08-11T06:17:25.131Z,22.97
2017-08-11T06:19:51.757Z,21.63
2017-08-11T06:22:18.394Z,20.23
2017-08-11T06:24:45.036Z,22.37
2017-08-11T06:27:11.684Z,23.13
2017-08-11T06:29:38.310Z,24.17
2017-08-11T06:32:04.955Z,25.10
2017-08-11T06:34:31.566Z,26.10
2017-08-11T06:36:58.199Z,30.40
2017-08-11T06:39:24.823Z,22.23
2017-08-11T06:41:51.499Z,25.50
2017-08-11T06:44:18.135Z,24.17
2017-08-11T06:46:44.755Z,21.10
2017-08-11T06:49:11.402Z,17.87
2017-08-11T06:51:38.046Z,24.63
2017-08-11T06:54:05.418Z,28.70
2017-08-11T06:56:32.052Z,41.27
2017-08-11T06:58:58.844Z,36.00
2017-08-11T07:01:25.491Z,36.20
2017-08-11T07:03:52.178Z,37.43
2017-08-11T07:06:18.803Z,32.57
2017-08-11T07:08:45.414Z,34.63
2017-08-11T07:11:12.064Z,21.70
2017-08-11T07:13:38.676Z,21.07
2017-08-11T07:16:05.320Z,24.73
2017-08-11T07:18:31.953Z,26.13
2017-08-11T07:20:58.616Z,29.60
2017-08-11T07:23:25.237Z,27.53
2017-08-11T07:25:51.851Z,27.30
2017-08-11T07:28:18.487Z,29.00
2017-08-11T07:30:45.118Z,31.80
2017-08-11T07:33:11.776Z,32.63
2017-08-11T07:35:38.418Z,32.27
2017-08-11T07:38:05.042Z,33.20
2017-08-11T07:40:31.672Z,38.20
2017-08-11T07:42:58.324Z,35.20
2017-08-11T07:45:24.940Z,27.33
2017-08-11T07:47:51.559Z,22.33
2017-08-11T07:50:18.210Z,31.70
2017-08-11T07:52:44.837Z,23.10
2017-08-11T07:55:11.492Z,22.40
2017-08-11T07:57:38.107Z,19.23
2017-08-11T08:00:04.755Z,21.40
2017-08-11T08:02:31.408Z,23.43
2017-08-11T08:04:58.027Z,24.70
2017-08-11T08:07:24.662Z,22.87
2017-08-11T08:09:51.318Z,31.93
2017-08-11T08:12:17.963Z,17.57
2017-08-11T08:14:44.589Z,21.57
2017-08-11T08:17:13.010Z,23.57
2017-08-11T08:19:39.913Z,25.20
2017-08-11T08:22:06.552Z,23.10
2017-08-11T08:24:33.202Z,26.43
2017-08-11T08:26:59.835Z,19.63
2017-08-11T08:29:26.463Z,24.33
2017-08-11T08:31:53.088Z,30.47
2017-08-11T08:34:19.733Z,25.90
2017-08-11T08:36:46.359Z,32.60
2017-08-11T08:39:12.998Z,32.33
2017-08-11T08:41:39.627Z,30.80
2017-08-11T08:44:06.267Z,24.50
2017-08-11T08:46:32.897Z,24.50
2017-08-11T08:48:59.527Z,22.60
2017-08-11T08:51:26.183Z,21.30
2017-08-11T08:53:52.786Z,24.23
2017-08-11T08:56:19.463Z,29.03
2017-08-11T08:58:46.105Z,20.70
2017-08-11T09:01:12.748Z,26.60
2017-08-11T09:03:39.360Z,25.83
2017-08-11T09:06:05.987Z,23.33
2017-08-11T09:08:32.603Z,20.03
2017-08-11T09:10:59.242Z,24.13
2017-08-11T09:13:25.885Z,23.17
2017-08-11T09:15:52.515Z,34.60
2017-08-11T09:18:19.554Z,35.97
2017-08-11T09:20:46.187Z,24.70
2017-08-11T09:23:12.803Z,16.97
2017-08-11T09:25:45.266Z,17.63
2017-08-11T09:28:17.743Z,15.80
2017-08-11T09:30:50.232Z,20.60
2017-08-11T09:33:22.825Z,17.60
2017-08-11T09:35:55.474Z,13.73
2017-08-11T09:38:22.124Z,11.33
2017-08-11T09:40:48.745Z,8.70
2017-08-11T09:43:15.367Z,13.33
2017-08-11T09:45:42.009Z,10.00
2017-08-11T09:48:08.648Z,10.07
2017-08-11T09:50:35.304Z,5.70
2017-08-11T09:53:01.914Z,8.47
2017-08-11T09:55:28.586Z,7.67
2017-08-11T09:57:55.268Z,6.93
2017-08-11T10:00:21.875Z,13.67
2017-08-11T10:02:48.528Z,11.33
2017-08-11T10:05:15.167Z,13.00
2017-08-11T10:07:41.810Z,8.57
2017-08-11T10:10:08.431Z,11.00
2017-08-11T10:12:35.058Z,14.37
2017-08-11T10:15:01.718Z,13.47
2017-08-11T10:17:28.370Z,15.10
2017-08-11T10:19:55.012Z,19.57
2017-08-11T10:22:21.620Z,14.40
2017-08-11T10:24:48.263Z,12.37
2017-08-11T10:27:14.898Z,18.20
2017-08-11T10:29:41.539Z,17.27
2017-08-11T10:32:08.171Z,15.53
2017-08-11T10:34:34.792Z,15.77
2017-08-11T10:37:01.427Z,16.87
2017-08-11T10:39:28.080Z,24.70
2017-08-11T10:41:54.716Z,22.70
2017-08-11T10:44:21.384Z,26.93
2017-08-11T10:46:48.009Z,16.90
2017-08-11T10:49:14.639Z,10.83
2017-08-11T10:51:41.282Z,12.40
2017-08-11T10:54:07.926Z,17.37
2017-08-11T10:56:34.578Z,10.90
2017-08-11T10:59:01.205Z,15.70
2017-08-11T11:01:27.843Z,13.83
2017-08-11T11:03:54.460Z,9.43
2017-08-11T11:06:21.100Z,10.83
2017-08-11T11:08:47.780Z,12.90
2017-08-11T11:11:14.417Z,12.83
2017-08-11T11:13:41.031Z,7.20
2017-08-11T11:16:07.653Z,12.43
2017-08-11T11:18:34.275Z,12.60
2017-08-11T11:21:03.824Z,8.03
2017-08-11T11:23:30.461Z,10.63
2017-08-11T11:25:57.926Z,9.43
2017-08-11T11:28:24.563Z,5.77
2017-08-11T11:30:51.223Z,10.87
2017-08-11T11:33:17.871Z,12.13
2017-08-11T11:35:44.494Z,9.03
2017-08-11T11:38:11.126Z,9.40
2017-08-11T11:40:37.756Z,9.40
2017-08-11T11:43:04.400Z,11.10
2017-08-11T11:45:31.037Z,14.00
2017-08-11T11:47:57.671Z,12.60
2017-08-11T11:50:24.301Z,9.03
2017-08-11T11:52:51.921Z,11.47
2017-08-11T11:55:18.599Z,8.57
2017-08-11T11:57:45.207Z,9.70
2017-08-11T12:00:11.835Z,10.80
2017-08-11T12:02:38.466Z,18.53
2017-08-11T12:05:05.091Z,9.57
2017-08-11T12:07:31.723Z,12.93
2017-08-11T12:09:58.338Z,13.17
2017-08-11T12:12:24.965Z,12.90
2017-08-11T12:14:52.597Z,12.50
2017-08-11T12:17:19.259Z,10.43
2017-08-11T12:19:45.912Z,10.50
2017-08-11T12:22:12.567Z,13.87
2017-08-11T12:24:39.182Z,11.17
2017-08-11T12:27:05.841Z,10.40
2017-08-11T12:29:33.172Z,12.43
2017-08-11T12:31:59.811Z,19.67
2017-08-11T12:34:26.432Z,14.80
2017-08-11T12:36:53.090Z,14.17
2017-08-11T12:39:19.732Z,11.03
2017-08-11T12:41:47.274Z,12.13
2017-08-11T12:44:13.914Z,9.57
2017-08-11T12:46:40.542Z,11.87
2017-08-11T12:49:07.182Z,15.90
2017-08-11T12:51:33.807Z,12.73
2017-08-11T12:54:00.422Z,8.33
2017-08-11T12:56:27.068Z,14.57
2017-08-11T12:58:53.704Z,9.50
2017-08-11T13:01:20.372Z,11.30
2017-08-11T13:03:47.003Z,9.30
2017-08-11T13:06:14.843Z,9.80
2017-08-11T13:08:41.444Z,6.90
2017-08-11T13:11:08.779Z,11.47
2017-08-11T13:13:35.427Z,9.60
2017-08-11T13:16:02.051Z,13.83
2017-08-11T13:18:28.710Z,10.37
2017-08-11T13:20:55.322Z,12.67
2017-08-11T13:23:21.971Z,8.23
2017-08-11T13:25:48.612Z,9.97
2017-08-11T13:28:15.230Z,9.50
2017-08-11T13:30:41.842Z,8.63
2017-08-11T13:33:08.487Z,10.27
2017-08-11T13:35:35.085Z,11.57
2017-08-11T13:38:01.723Z,8.20
2017-08-11T13:40:28.346Z,7.20
2017-08-11T13:42:55.982Z,8.13
2017-08-11T13:45:22.618Z,7.27
2017-08-11T13:47:49.236Z,15.60
2017-08-11T13:50:15.872Z,8.90
2017-08-11T13:52:42.488Z,6.93
2017-08-11T13:55:09.103Z,7.10
2017-08-11T13:57:35.743Z,14.57
2017-08-11T14:00:02.371Z,16.20
2017-08-11T14:02:28.995Z,6.17
2017-08-11T14:04:55.718Z,8.13
2017-08-11T14:07:22.328Z,12.93
2017-08-11T14:09:48.959Z,9.23
2017-08-11T14:12:15.594Z,6.40
2017-08-11T14:14:42.216Z,9.43
2017-08-11T14:17:08.828Z,10.20
2017-08-11T14:19:35.460Z,6.80
2017-08-11T14:22:02.068Z,7.23
2017-08-11T14:24:34.570Z,5.03
2017-08-11T14:27:01.207Z,13.43
2017-08-11T14:29:27.816Z,13.40
2017-08-11T14:31:54.471Z,12.87
2017-08-11T14:34:21.106Z,14.53
2017-08-11T14:36:47.736Z,9.43
2017-08-11T14:39:14.390Z,6.80
2017-08-11T14:41:41.014Z,13.57
2017-08-11T14:44:07.675Z,9.23
2017-08-11T14:46:34.318Z,9.30
2017-08-11T14:49:00.954Z,15.17
2017-08-11T14:51:27.588Z,9.93
2017-08-11T14:53:54.226Z,8.67
2017-08-11T14:56:20.844Z,14.87
2017-08-11T14:58:47.472Z,8.10
2017-08-11T15:01:14.098Z,6.20
2017-08-11T15:03:40.737Z,9.73
2017-08-11T15:06:07.359Z,11.20
2017-08-11T15:08:33.982Z,7.80
2017-08-11T15:11:00.610Z,9.60
2017-08-11T15:13:27.226Z,10.27
2017-08-11T15:15:53.840Z,6.13
2017-08-11T15:18:20.490Z,7.63
2017-08-11T15:20:47.119Z,9.23
2017-08-11T15:23:13.767Z,6.90
2017-08-11T15:25:40.376Z,5.33
2017-08-11T15:28:07.006Z,5.77
2017-08-11T15:30:33.639Z,13.90
2017-08-11T15:33:00.251Z,8.20
2017-08-11T15:35:26.880Z,7.53
2017-08-11T15:37:53.586Z,8.87
2017-08-11T15:40:20.205Z,7.60
2017-08-11T15:42:46.867Z,10.00
2017-08-11T15:45:13.472Z,8.40
2017-08-11T15:47:40.101Z,10.50
2017-08-11T15:50:06.719Z,9.07
2017-08-11T15:52:33.363Z,8.13
2017-08-11T15:55:00.011Z,11.03
2017-08-11T15:57:26.627Z,6.80
2017-08-11T15:59:53.283Z,9.17
2017-08-11T16:02:19.949Z,8.43
2017-08-11T16:04:46.581Z,6.40
2017-08-11T16:07:13.217Z,15.73
2017-08-11T16:09:39.848Z,11.20
2017-08-11T16:12:06.477Z,6.47
2017-08-11T16:14:33.107Z,7.50
2017-08-11T16:16:59.746Z,6.77
2017-08-11T16:19:26.366Z,6.80
2017-08-11T16:21:53.005Z,7.07
2017-08-11T16:24:19.657Z,5.83
2017-08-11T16:26:46.262Z,9.03
2017-08-11T16:29:12.907Z,7.17
2017-08-11T16:31:39.557Z,7.40
2017-08-11T16:34:06.215Z,6.83
2017-08-11T16:36:32.843Z,8.10
2017-08-11T16:38:59.479Z,5.87
2017-08-11T16:41:26.119Z,9.87
2017-08-11T16:43:52.743Z,6.23
2017-08-11T16:46:19.380Z,7.53
2017-08-11T16:48:46.036Z,9.00
2017-08-11T16:51:13.539Z,10.60
2017-08-11T16:53:40.187Z,7.20
2017-08-11T16:56:06.805Z,11.63
2017-08-11T16:58:33.463Z,13.83
2017-08-11T17:01:00.078Z,8.23
2017-08-11T17:03:26.701Z,9.03
2017-08-11T17:05:53.370Z,9.93
2017-08-11T17:08:20.001Z,5.20
2017-08-11T17:10:46.622Z,14.37
2017-08-11T17:13:13.276Z,6.97
2017-08-11T17:15:39.932Z,8.97
2017-08-11T17:18:06.560Z,7.53
2017-08-11T17:20:33.195Z,5.40
2017-08-11T17:22:59.831Z,11.17
2017-08-11T17:25:26.475Z,4.77
2017-08-11T17:27:53.095Z,8.33
2017-08-11T17:30:19.726Z,7.40
2017-08-11T17:32:46.683Z,6.60
2017-08-11T17:35:13.315Z,5.80
2017-08-11T17:37:39.928Z,10.03
2017-08-11T17:40:06.547Z,5.47
2017-08-11T17:42:33.172Z,10.33
2017-08-11T17:44:59.818Z,7.50
2017-08-11T17:47:26.447Z,7.20
2017-08-11T17:49:53.118Z,16.00
2017-08-11T17:52:19.731Z,13.27
2017-08-11T17:54:46.387Z,8.73
2017-08-11T17:57:13.299Z,13.60
2017-08-11T17:59:41.483Z,6.53
2017-08-11T18:02:09.688Z,9.70
2017-08-11T18:04:36.398Z,7.80
2017-08-11T18:07:03.391Z,11.47
2017-08-11T18:09:30.029Z,10.87
2017-08-11T18:11:56.668Z,10.80
2017-08-11T18:14:23.312Z,6.80
2017-08-11T18:16:49.937Z,15.17
2017-08-11T18:19:16.611Z,11.60
2017-08-11T18:21:43.235Z,12.50
2017-08-11T18:24:09.884Z,11.90
2017-08-11T18:26:36.528Z,10.33
2017-08-11T18:29:03.166Z,12.40
2017-08-11T18:31:29.815Z,12.00
2017-08-11T18:33:56.450Z,17.23
2017-08-11T18:36:23.104Z,10.97
2017-08-11T18:38:49.738Z,14.07
2017-08-11T18:41:16.406Z,18.53
2017-08-11T18:43:43.048Z,10.53
2017-08-11T18:46:09.683Z,13.30
2017-08-11T18:48:36.334Z,12.80
2017-08-11T18:51:02.965Z,12.20
2017-08-11T18:53:29.630Z,8.03
2017-08-11T18:55:56.245Z,12.83
2017-08-11T18:58:22.888Z,18.63
2017-08-11T19:00:49.529Z,14.57
2017-08-11T19:03:16.162Z,8.93
2017-08-11T19:05:42.802Z,23.53
2017-08-11T19:08:09.545Z,18.50
2017-08-11T19:10:36.215Z,12.70
2017-08-11T19:13:02.843Z,16.00
2017-08-11T19:15:29.598Z,14.43
2017-08-11T19:17:56.253Z,9.80
2017-08-11T19:20:23.187Z,10.47
2017-08-11T19:22:49.803Z,15.53
2017-08-11T19:25:16.682Z,18.67
2017-08-11T19:27:43.360Z,15.77
2017-08-11T19:30:10.035Z,11.77
2017-08-11T19:32:36.941Z,15.03
2017-08-11T19:35:03.649Z,18.63
2017-08-11T19:37:30.378Z,14.80
2017-08-11T19:39:57.344Z,15.30
2017-08-11T19:42:24.104Z,12.63
2017-08-11T19:44:51.013Z,18.40
2017-08-11T19:47:18.542Z,11.03
2017-08-11T19:49:45.496Z,22.43
2017-08-11T19:52:12.466Z,15.47
2017-08-11T19:54:39.437Z,15.30
2017-08-11T19:57:06.395Z,12.90
2017-08-11T19:59:33.215Z,15.27
2017-08-11T20:01:59.884Z,13.60
2017-08-11T20:04:27.331Z,12.20
2017-08-11T20:06:54.261Z,15.47
2017-08-11T20:09:21.235Z,11.37
2017-08-11T20:11:48.185Z,14.17
2017-08-11T20:14:15.132Z,17.03
2017-08-11T20:16:41.837Z,18.80
2017-08-11T20:19:08.610Z,13.73
2017-08-11T20:21:35.467Z,21.63
2017-08-11T20:24:02.103Z,12.73
2017-08-11T20:26:28.880Z,18.07
2017-08-11T20:28:56.290Z,16.17
2017-08-11T20:31:22.993Z,19.60
2017-08-11T20:33:49.631Z,12.97
2017-08-11T20:36:16.280Z,15.80
2017-08-11T20:38:42.923Z,16.93
2017-08-11T20:41:09.570Z,12.93
2017-08-11T20:43:36.276Z,13.53
2017-08-11T20:46:02.927Z,23.80
2017-08-11T20:48:32.328Z,19.80
2017-08-11T20:50:58.945Z,16.20
2017-08-11T20:53:25.891Z,13.40
2017-08-11T20:55:53.298Z,19.30
2017-08-11T20:58:19.974Z,18.50
2017-08-11T21:00:48.940Z,18.20
2017-08-11T21:03:17.748Z,18.73
2017-08-11T21:05:44.398Z,13.47
2017-08-11T21:08:13.174Z,17.00
2017-08-11T21:10:39.828Z,9.37
2017-08-11T21:13:06.495Z,9.70
2017-08-11T21:15:34.644Z,10.67
2017-08-11T21:18:01.279Z,8.83
2017-08-11T21:20:27.890Z,11.57
2017-08-11T21:22:56.882Z,11.83
2017-08-11T21:25:23.499Z,10.70
2017-08-11T21:27:51.104Z,18.40
2017-08-11T21:30:18.402Z,11.20
2017-08-11T21:32:45.024Z,9.90
2017-08-11T21:35:12.636Z,17.80
2017-08-11T21:37:39.292Z,13.87
2017-08-11T21:40:05.908Z,12.07
2017-08-11T21:42:32.567Z,11.63
2017-08-11T21:44:59.195Z,14.87
2017-08-11T21:47:25.870Z,14.03
2017-08-11T21:49:52.511Z,13.57
2017-08-11T21:52:21.812Z,14.83
2017-08-11T21:54:50.217Z,13.53
2017-08-11T21:57:18.090Z,14.60
2017-08-11T21:59:45.655Z,13.70
2017-08-11T22:02:12.980Z,13.47
2017-08-11T22:04:39.847Z,9.87
2017-08-11T22:07:06.476Z,12.30
2017-08-11T22:09:34.276Z,17.97
2017-08-11T22:12:00.902Z,9.60
2017-08-11T22:14:30.438Z,9.17
2017-08-11T22:16:57.923Z,14.20
2017-08-11T22:19:24.762Z,9.47
2017-08-11T22:21:51.411Z,9.70
2017-08-11T22:24:19.502Z,8.70
2017-08-11T22:26:46.876Z,7.17
2017-08-11T22:29:14.560Z,11.23
2017-08-11T22:31:42.823Z,12.27
2017-08-11T22:34:09.442Z,14.67
2017-08-11T22:36:36.456Z,16.13
2017-08-11T22:39:03.299Z,11.03
2017-08-11T22:41:29.956Z,11.40
2017-08-11T22:43:58.067Z,9.20
2017-08-11T22:46:25.148Z,9.43
2017-08-11T22:48:53.893Z,8.80
2017-08-11T22:51:21.841Z,8.40
2017-08-11T22:53:48.807Z,8.40
2017-08-11T22:56:18.659Z,12.23
2017-08-11T22:58:46.303Z,7.80
2017-08-11T23:01:14.547Z,14.00
2017-08-11T23:03:41.248Z,6.90
2017-08-11T23:06:08.908Z,13.43
2017-08-11T23:08:35.549Z,7.73
2017-08-11T23:11:04.008Z,11.33
2017-08-11T23:13:32.972Z,8.83
2017-08-11T23:15:59.921Z,9.00
2017-08-11T23:18:27.380Z,8.53
2017-08-11T23:20:55.814Z,7.80
2017-08-11T23:23:23.436Z,9.57
2017-08-11T23:25:50.439Z,6.93
2017-08-11T23:28:17.950Z,12.40
2017-08-11T23:30:47.697Z,10.13
2017-08-11T23:33:16.844Z,10.90
2017-08-11T23:35:46.249Z,13.43
2017-08-11T23:38:14.056Z,8.87
2017-08-11T23:40:43.613Z,8.90
2017-08-11T23:43:11.046Z,11.33
2017-08-11T23:45:38.771Z,10.70
2017-08-11T23:48:06.233Z,11.23
2017-08-11T23:50:35.859Z,14.03
2017-08-11T23:53:02.799Z,6.70
2017-08-11T23:55:30.321Z,10.90
2017-08-11T23:57:57.350Z,10.23
